Time;durP1;ratioP1;P1;durP2;ratioP2;P2;SDS_P1;SDS_P2;PMS_P1;PMS_P2;Temp;Humidity;BMP_temperature;BMP_pressure;BME280_temperature;BME280_humidity;BME280_pressure;Samples;Min_cycle;Max_cycle;Signal;HPM_P1;HPM_P2
2021/07/31 00:01:08;;;;;;;;;;;;;;;27.70;38.24;100223.03;5097378;28;740;-42
2021/07/31 00:03:33;;;;;;;;;;;;;;;27.94;38.43;100223.56;5096811;28;1974;-39
2021/07/31 00:05:58;;;;;;;;;;;;;;;27.86;38.24;100213.72;5097114;28;787;-39
2021/07/31 00:08:24;;;;;;;;;;;;;;;27.56;38.54;100213.97;5097094;28;844;-39
2021/07/31 00:10:49;;;;;;;;;;;;;;;27.47;38.41;100199.81;5097134;28;802;-39
2021/07/31 00:13:14;;;;;;;;;;;;;;;27.72;38.35;100212.84;5096743;28;1006;-39
2021/07/31 00:15:40;;;;;;;;;;;;;;;27.85;38.39;100208.53;5096823;28;744;-39
2021/07/31 00:18:05;;;;;;;;;;;;;;;27.69;38.61;100207.84;5096537;28;795;-39
2021/07/31 00:20:30;;;;;;;;;;;;;;;27.58;38.51;100211.06;5097203;28;824;-40
2021/07/31 00:22:55;;;;;;;;;;;;;;;27.50;38.15;100214.78;5078700;28;1909;-43
2021/07/31 00:25:21;;;;;;;;;;;;;;;27.91;38.24;100212.31;5096545;28;958;-38
2021/07/31 00:27:46;;;;;;;;;;;;;;;27.90;38.51;100211.47;5096489;28;1002;-39
2021/07/31 00:30:11;;;;;;;;;;;;;;;27.71;38.10;100210.34;5096479;28;763;-40
2021/07/31 00:32:37;;;;;;;;;;;;;;;27.60;38.00;100209.00;5096805;28;817;-41
2021/07/31 00:35:02;;;;;;;;;;;;;;;27.69;38.17;100202.44;5096802;28;790;-41
2021/07/31 00:37:27;;;;;;;;;;;;;;;27.97;38.13;100206.94;5096546;28;823;-39
2021/07/31 00:39:53;;;;;;;;;;;;;;;27.80;38.60;100201.03;5096765;28;768;-39
2021/07/31 00:42:18;;;;;;;;;;;;;;;27.64;38.14;100207.59;5095170;28;1917;-40
2021/07/31 00:44:44;;;;;;;;;;;;;;;27.58;38.51;100206.50;5096598;28;771;-40
2021/07/31 00:47:09;;;;;;;;;;;;;;;27.71;38.01;100202.25;5096605;28;860;-42
2021/07/31 00:49:34;;;;;;;;;;;;;;;27.99;38.36;100201.31;5077485;28;816;-41
2021/07/31 00:52:00;;;;;;;;;;;;;;;27.82;38.64;100203.53;5078554;28;1171;-43
2021/07/31 00:54:25;;;;;;;;;;;;;;;27.60;38.43;100198.19;5096420;28;1225;-40
2021/07/31 00:56:51;;;;;;;;;;;;;;;27.53;38.62;100208.16;5095940;28;938;-40
2021/07/31 00:59:16;;;;;;;;;;;;;;;27.79;38.59;100199.38;5096427;28;798;-40
2021/07/31 01:01:41;;;;;;;;;;;;;;;27.86;38.76;100196.69;5078147;28;1973;-38
2021/07/31 01:04:06;;;;;;;;;;;;;;;27.61;38.82;100200.69;5096169;28;795;-40
2021/07/31 01:06:32;;;;;;;;;;;;;;;27.66;38.36;100199.28;5096884;28;767;-39
2021/07/31 01:08:57;;;;;;;;;;;;;;;27.53;38.52;100200.06;5096171;28;783;-42
2021/07/31 01:11:22;;;;;;;;;;;;;;;27.72;38.40;100193.09;5095922;28;947;-40
2021/07/31 01:13:48;;;;;;;;;;;;;;;28.00;38.50;100192.16;5096377;28;819;-40
2021/07/31 01:16:13;;;;;;;;;;;;;;;27.65;38.65;100192.19;5077519;28;834;-40
2021/07/31 01:18:38;;;;;;;;;;;;;;;27.56;38.55;100183.44;5096144;28;763;-40
2021/07/31 01:21:04;;;;;;;;;;;;;;;27.60;38.35;100180.13;5096417;28;887;-40
2021/07/31 01:23:29;;;;;;;;;;;;;;;27.93;38.09;100181.31;5095951;28;1957;-42
2021/07/31 01:25:54;;;;;;;;;;;;;;;27.75;38.73;100180.03;5096063;28;823;-40
2021/07/31 01:28:20;;;;;;;;;;;;;;;27.82;38.04;100171.94;5095548;28;970;-40
2021/07/31 01:30:45;;;;;;;;;;;;;;;27.49;38.49;100173.41;5096031;28;800;-40
2021/07/31 01:33:10;;;;;;;;;;;;;;;27.66;38.39;100169.56;5096217;28;753;-40
2021/07/31 01:35:36;;;;;;;;;;;;;;;27.89;38.39;100168.44;5095842;28;772;-41
2021/07/31 01:38:04;;;;;;;;;;;;;;;27.66;38.60;100170.38;5096022;28;811;-40
2021/07/31 01:40:29;;;;;;;;;;;;;;;27.57;38.48;100168.88;5095918;28;787;-40
2021/07/31 01:42:56;;;;;;;;;;;;;;;27.49;38.33;100162.59;5095583;28;1960;-41
2021/07/31 01:45:22;;;;;;;;;;;;;;;27.71;38.44;100159.00;5096124;28;867;-42
2021/07/31 01:47:47;;;;;;;;;;;;;;;27.85;38.41;100158.03;5095681;28;975;-40
2021/07/31 01:50:13;;;;;;;;;;;;;;;27.56;38.81;100151.81;5095928;28;767;-40
2021/07/31 01:52:38;;;;;;;;;;;;;;;27.54;38.10;100153.91;5096554;28;839;-39
2021/07/31 01:55:03;;;;;;;;;;;;;;;27.59;38.20;100164.94;5099496;28;1117;-38
2021/07/31 01:57:29;;;;;;;;;;;;;;;27.92;38.24;100163.44;5099073;28;974;-39
2021/07/31 01:59:54;;;;;;;;;;;;;;;27.69;38.70;100169.19;5099031;28;747;-42
2021/07/31 02:02:19;;;;;;;;;;;;;;;27.66;38.31;100169.56;5099505;28;1971;-40
2021/07/31 02:04:44;;;;;;;;;;;;;;;27.65;38.22;100167.88;5099350;28;810;-42
2021/07/31 02:07:10;;;;;;;;;;;;;;;27.89;38.38;100166.56;5099060;28;774;-39
2021/07/31 02:09:35;;;;;;;;;;;;;;;27.71;38.59;100161.72;5099195;28;777;-39
2021/07/31 02:12:00;;;;;;;;;;;;;;;27.67;38.17;100158.53;5098974;28;947;-38
2021/07/31 02:14:26;;;;;;;;;;;;;;;27.51;38.23;100162.41;5099247;28;822;-40
2021/07/31 02:16:51;;;;;;;;;;;;;;;27.64;38.43;100158.94;5099243;28;814;-40
2021/07/31 02:19:16;;;;;;;;;;;;;;;27.92;38.22;100158.03;5098891;28;754;-42
2021/07/31 02:21:41;;;;;;;;;;;;;;;27.68;38.46;100154.81;5099379;28;1898;-41
2021/07/31 02:24:07;;;;;;;;;;;;;;;27.50;38.32;100158.03;5099071;28;775;-39
2021/07/31 02:26:32;;;;;;;;;;;;;;;27.47;38.28;100159.28;5075906;28;1270;-39
2021/07/31 02:28:57;;;;;;;;;;;;;;;27.82;38.17;100161.13;5078654;28;807;-40
2021/07/31 02:31:23;;;;;;;;;;;;;;;27.72;38.72;100155.25;5078278;28;930;-39
2021/07/31 02:33:48;;;;;;;;;;;;;;;27.60;38.32;100161.22;5078714;28;812;-39
2021/07/31 02:36:15;;;;;;;;;;;;;;;27.68;38.47;100162.06;5078736;28;787;-41
2021/07/31 02:38:40;;;;;;;;;;;;;;;27.80;39.10;100165.06;5078312;28;832;-41
2021/07/31 02:41:05;;;;;;;;;;;;;;;28.03;40.21;100170.13;5079340;28;931;-41
2021/07/31 02:43:30;;;;;;;;;;;;;;;28.23;39.72;100174.75;5098568;28;1905;-41
2021/07/31 02:45:56;;;;;;;;;;;;;;;28.46;39.65;100176.31;5098504;28;803;-43
2021/07/31 02:48:21;;;;;;;;;;;;;;;28.52;39.64;100175.47;5080062;28;1237;-42
2021/07/31 02:50:47;;;;;;;;;;;;;;;28.57;39.47;100169.44;5097925;28;867;-42
2021/07/31 02:53:12;;;;;;;;;;;;;;;28.70;39.66;100172.16;5098719;28;811;-41
2021/07/31 02:55:37;;;;;;;;;;;;;;;28.77;39.85;100174.84;5098216;28;1153;-41
2021/07/31 02:58:03;;;;;;;;;;;;;;;28.81;40.07;100180.69;5097659;28;966;-42
2021/07/31 03:00:28;;;;;;;;;;;;;;;28.82;39.78;100174.22;5098154;28;787;-41
2021/07/31 03:02:53;;;;;;;;;;;;;;;28.92;39.50;100171.94;5098302;28;1976;-40
2021/07/31 03:05:18;;;;;;;;;;;;;;;28.93;39.32;100173.59;5096822;28;747;-43
2021/07/31 03:07:44;;;;;;;;;;;;;;;28.92;39.53;100177.34;5098278;28;863;-42
2021/07/31 03:10:11;;;;;;;;;;;;;;;29.06;39.62;100180.88;5097930;28;759;-41
2021/07/31 03:12:36;;;;;;;;;;;;;;;29.12;39.69;100183.81;5097537;28;950;-41
2021/07/31 03:15:02;;;;;;;;;;;;;;;29.04;41.87;100184.88;5098141;28;760;-36
2021/07/31 03:17:27;;;;;;;;;;;;;;;28.83;42.44;100187.53;5097508;28;835;-39
2021/07/31 03:19:52;;;;;;;;;;;;;;;28.95;44.06;100192.31;5098097;28;779;-39
2021/07/31 03:22:18;;;;;;;;;;;;;;;28.72;45.63;100191.72;5097611;28;1918;-38
2021/07/31 03:24:43;;;;;;;;;;;;;;;28.83;44.01;100184.00;5097487;28;827;-39
2021/07/31 03:27:08;;;;;;;;;;;;;;;28.91;45.86;100193.81;5078858;28;955;-38
2021/07/31 03:29:34;;;;;;;;;;;;;;;28.91;45.98;100196.50;5097382;28;885;-37
2021/07/31 03:31:59;;;;;;;;;;;;;;;28.93;46.35;100194.41;5097764;28;756;-38
2021/07/31 03:34:24;;;;;;;;;;;;;;;28.96;47.39;100188.59;5097917;28;814;-38
2021/07/31 03:36:53;;;;;;;;;;;;;;;29.01;47.71;100186.09;5097552;28;835;-38
2021/07/31 03:39:19;;;;;;;;;;;;;;;28.83;47.90;100194.81;5097653;28;809;-41
2021/07/31 03:41:45;;;;;;;;;;;;;;;27.66;45.55;100191.16;5097280;28;1906;-41
2021/07/31 03:44:10;;;;;;;;;;;;;;;26.94;44.39;100186.75;5096790;28;890;-36
2021/07/31 03:46:35;;;;;;;;;;;;;;;26.80;42.42;100192.03;5097621;28;728;-37
2021/07/31 03:49:00;;;;;;;;;;;;;;;23.09;47.89;100188.38;5096931;28;1444;-41
2021/07/31 03:51:26;;;;;;;;;;;;;;;21.81;50.12;100192.03;5097429;28;736;-34
2021/07/31 03:53:51;;;;;;;;;;;;;;;22.52;49.46;100185.53;5097092;28;1365;-36
2021/07/31 03:56:16;;;;;;;;;;;;;;;22.33;49.79;100190.19;5096605;28;994;-34
2021/07/31 03:58:41;;;;;;;;;;;;;;;21.75;50.07;100192.66;5097680;28;789;-37
2021/07/31 04:01:07;;;;;;;;;;;;;;;22.36;49.90;100194.38;5097149;28;748;-33
2021/07/31 04:03:32;;;;;;;;;;;;;;;22.40;49.83;100193.06;5096879;28;1910;-37
2021/07/31 04:05:58;;;;;;;;;;;;;;;21.85;52.10;100201.44;5097116;28;758;-33
2021/07/31 04:08:24;;;;;;;;;;;;;;;21.99;51.87;100199.13;5096920;28;763;-38
2021/07/31 04:10:49;;;;;;;;;;;;;;;22.08;51.40;100200.00;5097087;28;855;-33
2021/07/31 04:13:14;;;;;;;;;;;;;;;22.06;51.29;100202.84;5096424;28;979;-38
2021/07/31 04:15:40;;;;;;;;;;;;;;;22.97;53.95;100207.50;5096708;28;740;-35
2021/07/31 04:18:05;;;;;;;;;;;;;;;22.48;53.45;100198.44;5096811;28;779;-38
2021/07/31 04:20:30;;;;;;;;;;;;;;;22.20;53.56;100200.53;5096950;28;840;-32
2021/07/31 04:22:56;;;;;;;;;;;;;;;20.16;60.62;100204.75;5096637;28;1898;-33
2021/07/31 04:25:21;;;;;;;;;;;;;;;19.86;61.32;100208.50;5096903;28;709;-32
2021/07/31 04:27:47;;;;;;;;;;;;;;;20.05;64.36;100210.28;5096440;28;1010;-36
2021/07/31 04:30:12;;;;;;;;;;;;;;;20.07;64.87;100205.63;5096901;28;850;-41
2021/07/31 04:32:37;;;;;;;;;;;;;;;20.17;64.58;100214.44;5078061;28;1235;-33
2021/07/31 04:35:03;;;;;;;;;;;;;;;20.24;64.96;100219.16;5096737;28;717;-36
2021/07/31 04:37:28;;;;;;;;;;;;;;;20.49;65.29;100225.63;5078412;28;1139;-35
2021/07/31 04:39:53;;;;;;;;;;;;;;;23.89;55.80;100226.16;5096420;28;863;-35
2021/07/31 04:42:19;;;;;;;;;;;;;;;21.90;60.08;100223.19;5096038;28;1897;-33
2021/07/31 04:44:44;;;;;;;;;;;;;;;20.58;64.57;100226.56;5095797;28;1357;-34
2021/07/31 04:47:09;;;;;;;;;;;;;;;20.50;65.26;100227.28;5096174;28;839;-34
2021/07/31 04:49:35;;;;;;;;;;;;;;;20.61;65.50;100225.41;5096654;28;817;-35
2021/07/31 04:52:00;;;;;;;;;;;;;;;20.55;66.90;100229.53;5095959;28;830;-35
2021/07/31 04:54:27;;;;;;;;;;;;;;;20.45;67.63;100229.59;5096439;28;1106;-38
2021/07/31 04:56:52;;;;;;;;;;;;;;;21.95;64.71;100227.22;5096424;28;959;-33
2021/07/31 04:59:18;;;;;;;;;;;;;;;24.54;55.33;100234.06;5096550;28;771;-35
2021/07/31 05:01:43;;;;;;;;;;;;;;;21.52;63.46;100226.13;5096109;28;1979;-38
2021/07/31 05:04:08;;;;;;;;;;;;;;;20.61;65.15;100228.91;5095872;28;1438;-35
2021/07/31 05:06:33;;;;;;;;;;;;;;;20.60;65.28;100227.25;5096409;28;811;-34
2021/07/31 05:08:59;;;;;;;;;;;;;;;20.99;66.52;100234.13;5096410;28;807;-34
2021/07/31 05:11:24;;;;;;;;;;;;;;;20.77;67.25;100230.91;5095928;28;947;-38
2021/07/31 05:13:49;;;;;;;;;;;;;;;20.73;66.69;100232.22;5095748;28;903;-39
2021/07/31 05:16:15;;;;;;;;;;;;;;;20.59;67.23;100232.72;5096029;28;836;-36
2021/07/31 05:18:41;;;;;;;;;;;;;;;20.64;65.59;100233.09;5096452;28;790;-35
2021/07/31 05:21:06;;;;;;;;;;;;;;;20.41;66.98;100231.72;5096174;28;759;-35
2021/07/31 05:23:31;;;;;;;;;;;;;;;20.92;67.35;100233.91;5096310;28;1964;-37
2021/07/31 05:25:57;;;;;;;;;;;;;;;20.73;66.97;100229.53;5095966;28;1031;-34
2021/07/31 05:28:22;;;;;;;;;;;;;;;20.66;66.62;100240.00;5097853;28;934;-34
2021/07/31 05:30:47;;;;;;;;;;;;;;;21.29;66.83;100236.53;5100461;28;739;-34
2021/07/31 05:33:13;;;;;;;;;;;;;;;21.47;65.13;100238.34;5099512;28;979;-35
2021/07/31 05:35:38;;;;;;;;;;;;;;;21.74;65.65;100245.34;5099863;28;838;-36
2021/07/31 05:38:03;;;;;;;;;;;;;;;21.93;66.17;100237.25;5100136;28;751;-35
2021/07/31 05:40:28;;;;;;;;;;;;;;;21.29;66.39;100237.38;5099609;28;718;-39
2021/07/31 05:42:54;;;;;;;;;;;;;;;21.46;65.74;100245.50;5099266;28;1905;-39
2021/07/31 05:45:19;;;;;;;;;;;;;;;21.55;64.24;100243.75;5100210;28;730;-34
2021/07/31 05:47:44;;;;;;;;;;;;;;;21.63;64.15;100248.28;5099387;28;795;-34
2021/07/31 05:50:10;;;;;;;;;;;;;;;21.35;64.27;100248.44;5099796;28;767;-34
2021/07/31 05:52:36;;;;;;;;;;;;;;;21.49;63.38;100250.53;5099359;28;804;-35
2021/07/31 05:55:01;;;;;;;;;;;;;;;20.85;64.82;100242.66;5099165;28;1066;-36
2021/07/31 05:57:27;;;;;;;;;;;;;;;20.67;65.17;100246.16;5099182;28;978;-35
2021/07/31 05:59:53;;;;;;;;;;;;;;;21.42;63.77;100252.16;5099292;28;832;-38
2021/07/31 06:02:19;;;;;;;;;;;;;;;21.36;63.75;100247.44;5099478;28;1976;-36
2021/07/31 06:04:44;;;;;;;;;;;;;;;21.04;64.62;100253.22;5099446;28;752;-34
2021/07/31 06:07:11;;;;;;;;;;;;;;;20.99;64.57;100252.84;5099781;28;847;-34
2021/07/31 06:09:37;;;;;;;;;;;;;;;21.16;64.90;100261.00;5099230;28;846;-34
2021/07/31 06:12:02;;;;;;;;;;;;;;;22.18;62.50;100253.44;5091294;28;1058;-38
2021/07/31 06:14:28;;;;;;;;;;;;;;;21.48;64.77;100264.94;5079105;28;719;-34
2021/07/31 06:16:53;;;;;;;;;;;;;;;21.23;65.26;100255.88;5078636;28;870;-35
2021/07/31 06:19:19;;;;;;;;;;;;;;;20.80;65.35;100259.16;5079252;28;803;-34
2021/07/31 06:21:44;;;;;;;;;;;;;;;21.01;64.60;100261.56;5079125;28;1902;-32
2021/07/31 06:24:10;;;;;;;;;;;;;;;22.00;62.81;100262.41;5078892;28;732;-35
2021/07/31 06:26:35;;;;;;;;;;;;;;;22.06;62.68;100266.25;5084167;28;967;-35
2021/07/31 06:29:00;;;;;;;;;;;;;;;21.79;62.74;100268.97;5099238;28;760;-34
2021/07/31 06:31:25;;;;;;;;;;;;;;;21.94;63.17;100269.22;5098996;28;850;-42
2021/07/31 06:33:51;;;;;;;;;;;;;;;21.65;63.88;100259.69;5099334;28;759;-34
2021/07/31 06:36:19;;;;;;;;;;;;;;;21.24;64.82;100257.53;5099209;28;815;-34
2021/07/31 06:38:44;;;;;;;;;;;;;;;21.19;63.96;100258.03;5098896;28;742;-39
2021/07/31 06:41:10;;;;;;;;;;;;;;;21.33;65.77;100261.13;5098354;28;986;-41
2021/07/31 06:43:35;;;;;;;;;;;;;;;21.33;64.65;100264.66;5098617;28;1979;-35
2021/07/31 06:46:13;;;;;;;;;;;;;;;21.87;64.47;100269.03;5098885;28;832;-35
2021/07/31 06:48:38;;;;;;;;;;;;;;;21.90;64.18;100262.53;5099028;28;712;-38
2021/07/31 06:51:04;;;;;;;;;;;;;;;22.73;63.05;100270.88;5098476;28;811;-37
2021/07/31 06:53:29;;;;;;;;;;;;;;;22.37;64.38;100274.59;5098369;28;1138;-41
2021/07/31 06:55:58;;;;;;;;;;;;;;;21.77;65.42;100269.13;5098545;28;774;-41
2021/07/31 06:58:23;;;;;;;;;;;;;;;21.68;64.84;100271.91;5097987;28;916;-38
2021/07/31 07:00:48;;;;;;;;;;;;;;;21.28;65.31;100266.97;5098788;28;887;-36
2021/07/31 07:03:14;;;;;;;;;;;;;;;21.36;65.30;100263.50;5098135;28;1978;-42
2021/07/31 07:05:39;;;;;;;;;;;;;;;21.62;64.25;100268.84;5098319;28;747;-36
2021/07/31 07:08:04;;;;;;;;;;;;;;;21.55;65.54;100275.84;5098602;28;809;-36
2021/07/31 07:10:30;;;;;;;;;;;;;;;22.76;63.53;100264.34;5098271;28;755;-36
2021/07/31 07:12:55;;;;;;;;;;;;;;;23.27;63.29;100259.84;5097798;28;995;-37
2021/07/31 07:15:20;;;;;;;;;;;;;;;21.99;64.41;100276.78;5098252;28;831;-35
2021/07/31 07:17:45;;;;;;;;;;;;;;;21.93;64.68;100272.91;5098468;28;834;-40
2021/07/31 07:20:11;;;;;;;;;;;;;;;21.86;65.35;100277.22;5098496;28;806;-41
2021/07/31 07:22:36;;;;;;;;;;;;;;;21.69;65.35;100277.09;5097906;28;1976;-42
2021/07/31 07:25:01;;;;;;;;;;;;;;;21.11;65.29;100274.00;5097982;28;807;-39
2021/07/31 07:27:26;;;;;;;;;;;;;;;20.76;65.53;100266.66;5097873;28;966;-35
2021/07/31 07:29:52;;;;;;;;;;;;;;;20.67;64.99;100268.38;5098138;28;910;-35
2021/07/31 07:32:17;;;;;;;;;;;;;;;20.49;65.11;100272.88;5098040;28;751;-37
2021/07/31 07:34:42;;;;;;;;;;;;;;;20.36;65.24;100274.06;5097528;28;815;-34
2021/07/31 07:37:08;;;;;;;;;;;;;;;20.31;65.02;100279.03;5098127;28;759;-39
2021/07/31 07:39:33;;;;;;;;;;;;;;;20.35;65.61;100274.22;5097932;28;874;-40
2021/07/31 07:41:58;;;;;;;;;;;;;;;20.85;65.64;100285.44;5097210;28;1901;-39
2021/07/31 07:44:24;;;;;;;;;;;;;;;20.54;65.48;100274.09;5098159;28;811;-39
2021/07/31 07:46:49;;;;;;;;;;;;;;;20.29;65.49;100275.66;5097325;28;865;-34
2021/07/31 07:49:15;;;;;;;;;;;;;;;20.55;66.07;100275.78;5097162;28;863;-39
2021/07/31 07:51:40;;;;;;;;;;;;;;;20.19;65.63;100279.22;5096892;28;813;-34
2021/07/31 07:54:05;;;;;;;;;;;;;;;20.18;65.39;100279.38;5097382;28;1079;-40
2021/07/31 07:56:30;;;;;;;;;;;;;;;20.12;65.45;100272.78;5096994;28;985;-38
2021/07/31 07:58:59;;;;;;;;;;;;;;;22.39;59.90;100285.16;5097404;28;862;-38
2021/07/31 08:01:25;;;;;;;;;;;;;;;24.51;51.41;100290.06;5096803;28;874;-39
2021/07/31 08:03:50;;;;;;;;;;;;;;;20.83;61.81;100282.94;5097689;28;1910;-33
2021/07/31 08:06:16;;;;;;;;;;;;;;;20.25;63.44;100282.28;5097359;28;821;-36
2021/07/31 08:08:42;;;;;;;;;;;;;;;20.12;63.61;100280.78;5097517;28;785;-39
2021/07/31 08:11:08;;;;;;;;;;;;;;;19.92;64.18;100274.66;5097009;28;959;-34
2021/07/31 08:13:33;;;;;;;;;;;;;;;20.00;64.47;100274.75;5096961;28;835;-40
2021/07/31 08:15:59;;;;;;;;;;;;;;;20.31;64.04;100269.19;5097029;28;905;-33
2021/07/31 08:18:24;;;;;;;;;;;;;;;21.73;61.52;100274.94;5097360;28;779;-40
2021/07/31 08:20:49;;;;;;;;;;;;;;;23.99;52.07;100271.59;5097643;28;752;-33
2021/07/31 08:23:15;;;;;;;;;;;;;;;20.85;60.39;100272.06;5097173;28;1967;-37
2021/07/31 08:25:40;;;;;;;;;;;;;;;20.12;62.46;100271.97;5096998;28;775;-41
2021/07/31 08:28:05;;;;;;;;;;;;;;;20.48;62.57;100265.84;5096628;28;910;-43
2021/07/31 08:30:31;;;;;;;;;;;;;;;20.06;63.37;100273.38;5097068;28;771;-37
2021/07/31 08:32:56;;;;;;;;;;;;;;;20.18;63.88;100274.88;5097144;28;806;-41
2021/07/31 08:35:21;;;;;;;;;;;;;;;20.34;63.88;100273.38;5096899;28;771;-34
2021/07/31 08:37:46;;;;;;;;;;;;;;;22.82;56.34;100276.25;5096960;28;759;-40
2021/07/31 08:40:12;;;;;;;;;;;;;;;23.34;54.14;100277.75;5095792;28;1126;-35
2021/07/31 08:42:38;;;;;;;;;;;;;;;20.27;60.99;100275.78;5096295;28;1902;-35
2021/07/31 08:45:04;;;;;;;;;;;;;;;19.86;61.67;100276.09;5096837;28;851;-35
2021/07/31 08:47:30;;;;;;;;;;;;;;;19.70;62.24;100274.84;5096840;28;763;-39
2021/07/31 08:49:55;;;;;;;;;;;;;;;20.15;62.84;100283.16;5096758;28;824;-43
2021/07/31 08:52:20;;;;;;;;;;;;;;;20.16;61.89;100282.19;5078598;28;866;-33
2021/07/31 08:54:45;;;;;;;;;;;;;;;19.72;63.63;100282.72;5090040;28;1103;-43
2021/07/31 08:57:11;;;;;;;;;;;;;;;19.74;63.51;100288.75;5105725;28;1095;-40
2021/07/31 08:59:36;;;;;;;;;;;;;;;22.27;57.48;100281.94;5085635;28;859;-41
2021/07/31 09:02:02;;;;;;;;;;;;;;;24.08;51.83;100280.47;5078286;28;1972;-42
2021/07/31 09:04:27;;;;;;;;;;;;;;;20.27;60.96;100281.13;5080109;28;748;-34
2021/07/31 09:06:52;;;;;;;;;;;;;;;19.87;62.31;100272.41;5063015;28;833;-43
2021/07/31 09:09:25;;;;;;;;;;;;;;;19.95;62.26;100277.03;5080599;28;817;-33
2021/07/31 09:11:54;;;;;;;;;;;;;;;19.79;62.25;100277.66;5087976;28;963;-40
2021/07/31 09:14:19;;;;;;;;;;;;;;;20.34;62.26;100276.03;5100424;28;820;-33
2021/07/31 09:16:44;;;;;;;;;;;;;;;21.55;60.63;100275.00;5100540;28;783;-38
2021/07/31 09:19:10;;;;;;;;;;;;;;;24.10;50.74;100270.41;5100424;28;798;-34
2021/07/31 09:21:36;;;;;;;;;;;;;;;20.97;58.17;100275.41;5100599;28;783;-38
2021/07/31 09:24:01;;;;;;;;;;;;;;;20.53;59.82;100283.13;5100393;28;1968;-46
2021/07/31 09:26:26;;;;;;;;;;;;;;;20.48;61.13;100284.56;5100531;28;1017;-42
2021/07/31 09:29:01;;;;;;;;;;;;;;;20.18;62.41;100280.22;5100513;28;740;-40
2021/07/31 09:31:27;;;;;;;;;;;;;;;20.51;62.39;100282.44;5099852;28;820;-41
2021/07/31 09:33:52;;;;;;;;;;;;;;;20.03;62.61;100276.31;5100343;28;1288;-40
2021/07/31 09:36:18;;;;;;;;;;;;;;;21.75;59.17;100278.31;5100366;28;847;-44
2021/07/31 09:38:47;;;;;;;;;;;;;;;24.19;48.81;100279.31;5100142;28;882;-41
2021/07/31 09:41:51;;;;;;;;;;;;;;;20.47;57.94;100277.53;5100366;28;922;-38
2021/07/31 09:44:16;;;;;;;;;;;;;;;20.90;54.23;100283.16;5037319;28;1396;-42
2021/07/31 09:46:42;;;;;;;;;;;;;;;20.29;55.62;100276.50;5088476;28;1098;-43
2021/07/31 09:49:09;;;;;;;;;;;;;;;20.30;55.58;100280.03;5100159;28;735;-38
2021/07/31 09:51:35;;;;;;;;;;;;;;;20.25;55.68;100272.44;5099820;28;482;-37
2021/07/31 09:54:01;;;;;;;;;;;;;;;20.84;53.85;100276.56;5094880;28;1107;-38
2021/07/31 09:56:26;;;;;;;;;;;;;;;20.23;55.60;100274.44;5087001;28;963;-42
2021/07/31 09:58:51;;;;;;;;;;;;;;;22.38;51.47;100280.81;5099811;28;871;-43
2021/07/31 10:01:17;;;;;;;;;;;;;;;24.06;47.33;100277.97;5099346;28;801;-39
2021/07/31 10:03:42;;;;;;;;;;;;;;;21.03;52.39;100272.09;5081603;28;1914;-44
2021/07/31 10:06:07;;;;;;;;;;;;;;;20.69;53.78;100273.59;5081533;28;880;-41
2021/07/31 10:08:33;;;;;;;;;;;;;;;20.68;53.48;100266.56;5081349;28;814;-42
2021/07/31 10:10:58;;;;;;;;;;;;;;;21.22;52.05;100264.91;5081260;28;979;-37
2021/07/31 10:13:23;;;;;;;;;;;;;;;20.29;54.66;100263.16;5098442;28;935;-37
2021/07/31 10:15:49;;;;;;;;;;;;;;;20.23;55.03;100255.72;5099415;28;779;-37
2021/07/31 10:18:15;;;;;;;;;;;;;;;23.06;48.22;100258.47;5099497;28;781;-37
2021/07/31 10:20:40;;;;;;;;;;;;;;;22.87;47.49;100261.31;5099877;28;750;-41
2021/07/31 10:23:07;;;;;;;;;;;;;;;21.84;49.46;100257.78;5080845;28;1902;-42
2021/07/31 10:25:32;;;;;;;;;;;;;;;20.45;53.19;100255.47;5099827;28;830;-38
2021/07/31 10:28:18;;;;;;;;;;;;;;;20.07;54.27;100251.00;5098803;28;1013;-37
2021/07/31 10:30:43;;;;;;;;;;;;;;;20.01;54.46;100252.44;5099199;28;1946;-36
2021/07/31 10:33:28;;;;;;;;;;;;;;;19.88;55.02;100244.75;5099235;28;763;-38
2021/07/31 10:35:54;;;;;;;;;;;;;;;21.63;52.47;100251.81;5098394;28;1048;-39
2021/07/31 10:38:19;;;;;;;;;;;;;;;23.84;44.54;100239.25;5080769;28;1372;-50
2021/07/31 10:40:44;;;;;;;;;;;;;;;20.59;53.13;100243.41;5081116;28;1306;-39
2021/07/31 10:43:11;;;;;;;;;;;;;;;20.37;53.75;100250.88;5098164;28;1914;-38
2021/07/31 10:45:36;;;;;;;;;;;;;;;20.34;54.11;100238.66;5099431;28;836;-43
2021/07/31 10:48:02;;;;;;;;;;;;;;;20.37;53.48;100234.84;5098843;28;771;-38
2021/07/31 10:50:28;;;;;;;;;;;;;;;20.08;54.33;100234.03;5098455;28;815;-40
2021/07/31 10:53:02;;;;;;;;;;;;;;;21.29;53.00;100240.06;5098510;28;878;-45
2021/07/31 10:55:36;;;;;;;;;;;;;;;23.78;43.48;100248.00;5099052;28;1059;-36
2021/07/31 10:58:01;;;;;;;;;;;;;;;20.96;50.73;100245.13;5098185;28;966;-39
2021/07/31 11:00:32;;;;;;;;;;;;;;;20.90;50.71;100248.41;5098559;28;791;-45
2021/07/31 11:02:58;;;;;;;;;;;;;;;21.60;48.97;100243.25;5098538;28;1913;-34
2021/07/31 11:05:24;;;;;;;;;;;;;;;21.09;49.90;100242.06;5098119;28;767;-35
2021/07/31 11:07:58;;;;;;;;;;;;;;;20.92;51.20;100246.38;5098556;28;905;-40
2021/07/31 11:10:42;;;;;;;;;;;;;;;21.94;51.19;100245.13;5099279;28;815;-35
2021/07/31 11:13:31;;;;;;;;;;;;;;;24.09;42.60;100233.78;5098029;28;958;-34
2021/07/31 11:15:56;;;;;;;;;;;;;;;22.17;47.41;100238.38;5087252;28;1182;-35
2021/07/31 11:18:21;;;;;;;;;;;;;;;21.70;48.88;100240.47;5098491;28;714;-40
2021/07/31 11:20:47;;;;;;;;;;;;;;;21.41;50.35;100227.25;5098286;28;834;-41
2021/07/31 11:23:12;;;;;;;;;;;;;;;20.59;52.04;100230.03;5080522;28;1914;-39
2021/07/31 11:25:37;;;;;;;;;;;;;;;22.12;48.92;100228.97;5078366;28;985;-36
2021/07/31 11:28:10;;;;;;;;;;;;;;;21.99;49.32;100221.38;5078294;28;1257;-34
2021/07/31 11:30:45;;;;;;;;;;;;;;;22.32;48.73;100227.88;5098232;28;746;-39
2021/07/31 11:33:14;;;;;;;;;;;;;;;22.26;49.09;100222.16;5097543;28;816;-34
2021/07/31 11:35:39;;;;;;;;;;;;;;;20.90;51.49;100213.66;5097846;28;475;-39
2021/07/31 11:38:23;;;;;;;;;;;;;;;20.98;51.45;100221.75;5098031;28;743;-38
2021/07/31 11:41:08;;;;;;;;;;;;;;;20.43;52.58;100216.41;5097623;28;878;-34
2021/07/31 11:43:49;;;;;;;;;;;;;;;20.54;52.89;100223.34;5077225;28;1897;-40
2021/07/31 11:46:28;;;;;;;;;;;;;;;22.74;47.24;100218.06;5058828;28;821;-35
2021/07/31 11:48:54;;;;;;;;;;;;;;;22.44;47.74;100215.81;5077161;28;492;-39
2021/07/31 11:51:19;;;;;;;;;;;;;;;20.71;51.83;100217.31;5077520;28;757;-34
2021/07/31 11:53:45;;;;;;;;;;;;;;;20.29;52.82;100215.06;5079582;28;968;-40
2021/07/31 11:56:10;;;;;;;;;;;;;;;20.50;52.34;100213.94;5099532;28;967;-38
2021/07/31 11:58:35;;;;;;;;;;;;;;;20.39;52.39;100208.81;5117545;28;818;-39
2021/07/31 12:01:01;;;;;;;;;;;;;;;20.02;53.79;100199.88;5118457;28;752;-34
2021/07/31 12:03:40;;;;;;;;;;;;;;;21.03;53.62;100205.25;5117726;28;1971;-38
2021/07/31 12:06:05;;;;;;;;;;;;;;;23.69;43.99;100198.88;5117472;28;819;-35
2021/07/31 12:08:45;;;;;;;;;;;;;;;20.70;51.32;100202.28;5117530;28;887;-34
2021/07/31 12:11:11;;;;;;;;;;;;;;;20.22;53.21;100199.81;5117414;28;950;-39
2021/07/31 12:13:36;;;;;;;;;;;;;;;20.18;53.69;100199.25;5117078;28;1699;-34
2021/07/31 12:16:01;;;;;;;;;;;;;;;21.16;51.73;100207.50;5117760;28;747;-39
2021/07/31 12:18:28;;;;;;;;;;;;;;;21.67;50.63;100216.69;5117120;28;496;-41
2021/07/31 12:20:54;;;;;;;;;;;;;;;22.15;49.66;100203.72;5117348;28;811;-36
2021/07/31 12:23:32;;;;;;;;;;;;;;;20.63;52.87;100199.38;5117142;28;1910;-39
2021/07/31 12:25:58;;;;;;;;;;;;;;;19.98;54.64;100198.47;5098827;28;959;-36
2021/07/31 12:28:36;;;;;;;;;;;;;;;19.82;55.19;100187.44;5117365;28;935;-46
2021/07/31 12:31:19;;;;;;;;;;;;;;;20.24;54.33;100190.63;5096673;28;803;-45
2021/07/31 12:33:45;;;;;;;;;;;;;;;21.12;54.49;100190.13;5078889;28;775;-47
2021/07/31 12:36:16;;;;;;;;;;;;;;;23.53;45.62;100195.22;5096816;28;840;-37
2021/07/31 12:38:41;;;;;;;;;;;;;;;21.39;50.63;100204.31;5096731;28;823;-44
2021/07/31 12:41:06;;;;;;;;;;;;;;;19.93;53.37;100193.59;5097704;28;923;-46
2021/07/31 12:43:32;;;;;;;;;;;;;;;19.72;54.01;100199.16;5117080;28;1926;-43
2021/07/31 12:46:00;;;;;;;;;;;;;;;20.15;53.61;100199.56;5117236;28;850;-36
2021/07/31 12:48:29;;;;;;;;;;;;;;;20.14;54.30;100204.03;5117677;28;763;-44
2021/07/31 12:50:54;;;;;;;;;;;;;;;19.81;54.95;100203.63;5117171;28;794;-43